sensor_id;sensor_type;location;lat;lon;timestamp;P1;durP1;ratioP1;P2;durP2;ratioP2
21562;SDS011;10942;47.894;11.424;2024-02-14T00:00:00;7.55;;;2.92;;
21562;SDS011;10942;47.894;11.424;2024-02-14T00:02:26;6.55;;;2.42;;
21562;SDS011;10942;47.894;11.424;2024-02-14T00:04:52;10.07;;;5.18;;
21562;SDS011;10942;47.894;11.424;2024-02-14T00:07:19;15.85;;;4.53;;
21562;SDS011;10942;47.894;11.424;2024-02-14T00:09:45;8.50;;;3.90;;
21562;SDS011;10942;47.894;11.424;2024-02-14T00:12:11;13.13;;;6.45;;
21562;SDS011;10942;47.894;11.424;2024-02-14T00:14:37;15.05;;;6.30;;
21562;SDS011;10942;47.894;11.424;2024-02-14T00:17:03;11.38;;;6.40;;
21562;SDS011;10942;47.894;11.424;2024-02-14T00:19:30;8.77;;;3.60;;
21562;SDS011;10942;47.894;11.424;2024-02-14T00:21:56;5.95;;;2.45;;
21562;SDS011;10942;47.894;11.424;2024-02-14T00:24:22;4.53;;;2.47;;
21562;SDS011;10942;47.894;11.424;2024-02-14T00:26:49;3.97;;;2.20;;
21562;SDS011;10942;47.894;11.424;2024-02-14T00:29:15;5.30;;;2.33;;
21562;SDS011;10942;47.894;11.424;2024-02-14T00:31:41;5.00;;;2.35;;
21562;SDS011;10942;47.894;11.424;2024-02-14T00:34:09;5.13;;;2.25;;
21562;SDS011;10942;47.894;11.424;2024-02-14T00:36:36;4.88;;;2.03;;
21562;SDS011;10942;47.894;11.424;2024-02-14T00:39:01;5.72;;;2.15;;
21562;SDS011;10942;47.894;11.424;2024-02-14T00:41:27;3.85;;;2.50;;
21562;SDS011;10942;47.894;11.424;2024-02-14T00:43:56;4.60;;;2.25;;
21562;SDS011;10942;47.894;11.424;2024-02-14T00:46:22;6.07;;;2.30;;
21562;SDS011;10942;47.894;11.424;2024-02-14T00:48:47;7.25;;;2.45;;
21562;SDS011;10942;47.894;11.424;2024-02-14T00:51:13;6.63;;;2.78;;
21562;SDS011;10942;47.894;11.424;2024-02-14T00:53:39;8.05;;;2.58;;
21562;SDS011;10942;47.894;11.424;2024-02-14T00:56:05;8.00;;;4.35;;
21562;SDS011;10942;47.894;11.424;2024-02-14T00:58:30;8.02;;;4.43;;
21562;SDS011;10942;47.894;11.424;2024-02-14T01:00:56;9.25;;;3.15;;
21562;SDS011;10942;47.894;11.424;2024-02-14T01:03:22;6.85;;;2.72;;
21562;SDS011;10942;47.894;11.424;2024-02-14T01:05:48;4.75;;;2.45;;
21562;SDS011;10942;47.894;11.424;2024-02-14T01:08:14;5.32;;;2.20;;
21562;SDS011;10942;47.894;11.424;2024-02-14T01:10:40;7.47;;;2.38;;
21562;SDS011;10942;47.894;11.424;2024-02-14T01:13:06;4.88;;;2.35;;
21562;SDS011;10942;47.894;11.424;2024-02-14T01:15:32;6.88;;;2.30;;
21562;SDS011;10942;47.894;11.424;2024-02-14T01:17:58;3.80;;;2.10;;
21562;SDS011;10942;47.894;11.424;2024-02-14T01:20:25;4.28;;;2.28;;
21562;SDS011;10942;47.894;11.424;2024-02-14T01:22:50;4.88;;;2.65;;
21562;SDS011;10942;47.894;11.424;2024-02-14T01:25:16;7.47;;;2.45;;
21562;SDS011;10942;47.894;11.424;2024-02-14T01:27:42;6.50;;;2.53;;
21562;SDS011;10942;47.894;11.424;2024-02-14T01:30:08;4.25;;;2.42;;
21562;SDS011;10942;47.894;11.424;2024-02-14T01:32:34;5.97;;;2.20;;
21562;SDS011;10942;47.894;11.424;2024-02-14T01:35:00;4.22;;;2.65;;
21562;SDS011;10942;47.894;11.424;2024-02-14T01:37:26;6.13;;;2.30;;
21562;SDS011;10942;47.894;11.424;2024-02-14T01:39:54;4.68;;;2.20;;
21562;SDS011;10942;47.894;11.424;2024-02-14T01:42:20;8.35;;;2.25;;
21562;SDS011;10942;47.894;11.424;2024-02-14T01:44:45;4.03;;;2.20;;
21562;SDS011;10942;47.894;11.424;2024-02-14T01:47:11;3.95;;;1.98;;
21562;SDS011;10942;47.894;11.424;2024-02-14T01:49:37;3.42;;;2.08;;
21562;SDS011;10942;47.894;11.424;2024-02-14T01:52:04;6.95;;;2.58;;
21562;SDS011;10942;47.894;11.424;2024-02-14T01:54:30;4.97;;;2.63;;
21562;SDS011;10942;47.894;11.424;2024-02-14T01:56:56;5.40;;;3.00;;
21562;SDS011;10942;47.894;11.424;2024-02-14T01:59:26;5.60;;;2.90;;
21562;SDS011;10942;47.894;11.424;2024-02-14T02:01:52;6.78;;;3.08;;
21562;SDS011;10942;47.894;11.424;2024-02-14T02:04:18;8.60;;;3.78;;
21562;SDS011;10942;47.894;11.424;2024-02-14T02:06:45;9.25;;;3.63;;
21562;SDS011;10942;47.894;11.424;2024-02-14T02:09:11;7.97;;;3.60;;
21562;SDS011;10942;47.894;11.424;2024-02-14T02:11:46;7.30;;;3.45;;
21562;SDS011;10942;47.894;11.424;2024-02-14T02:14:16;8.25;;;3.65;;
21562;SDS011;10942;47.894;11.424;2024-02-14T02:16:42;6.63;;;3.30;;
21562;SDS011;10942;47.894;11.424;2024-02-14T02:19:08;6.60;;;2.90;;
21562;SDS011;10942;47.894;11.424;2024-02-14T02:21:35;5.47;;;2.70;;
21562;SDS011;10942;47.894;11.424;2024-02-14T02:24:01;6.45;;;3.17;;
21562;SDS011;10942;47.894;11.424;2024-02-14T02:26:27;7.88;;;3.47;;
21562;SDS011;10942;47.894;11.424;2024-02-14T02:28:52;7.38;;;4.00;;
21562;SDS011;10942;47.894;11.424;2024-02-14T02:31:19;8.35;;;3.42;;
21562;SDS011;10942;47.894;11.424;2024-02-14T02:33:45;9.93;;;3.65;;
21562;SDS011;10942;47.894;11.424;2024-02-14T02:36:11;8.55;;;3.33;;
21562;SDS011;10942;47.894;11.424;2024-02-14T02:38:36;8.00;;;3.53;;
21562;SDS011;10942;47.894;11.424;2024-02-14T02:41:03;10.25;;;3.22;;
21562;SDS011;10942;47.894;11.424;2024-02-14T02:43:31;8.77;;;3.58;;
21562;SDS011;10942;47.894;11.424;2024-02-14T02:45:58;8.05;;;3.85;;
21562;SDS011;10942;47.894;11.424;2024-02-14T02:48:24;7.97;;;3.30;;
21562;SDS011;10942;47.894;11.424;2024-02-14T02:50:50;9.57;;;3.85;;
21562;SDS011;10942;47.894;11.424;2024-02-14T02:53:16;8.05;;;3.65;;
21562;SDS011;10942;47.894;11.424;2024-02-14T02:55:42;5.88;;;2.78;;
21562;SDS011;10942;47.894;11.424;2024-02-14T02:58:08;6.50;;;3.50;;
21562;SDS011;10942;47.894;11.424;2024-02-14T03:00:34;7.18;;;3.47;;
21562;SDS011;10942;47.894;11.424;2024-02-14T03:03:00;4.97;;;2.75;;
21562;SDS011;10942;47.894;11.424;2024-02-14T03:05:27;6.53;;;3.00;;
21562;SDS011;10942;47.894;11.424;2024-02-14T03:07:56;7.57;;;3.50;;
21562;SDS011;10942;47.894;11.424;2024-02-14T03:10:23;6.78;;;3.72;;
21562;SDS011;10942;47.894;11.424;2024-02-14T03:12:50;5.57;;;2.83;;
21562;SDS011;10942;47.894;11.424;2024-02-14T03:15:16;7.70;;;3.13;;
21562;SDS011;10942;47.894;11.424;2024-02-14T03:17:43;7.13;;;3.22;;
21562;SDS011;10942;47.894;11.424;2024-02-14T03:20:09;6.60;;;3.15;;
21562;SDS011;10942;47.894;11.424;2024-02-14T03:22:38;6.93;;;3.00;;
21562;SDS011;10942;47.894;11.424;2024-02-14T03:25:09;9.93;;;3.42;;
21562;SDS011;10942;47.894;11.424;2024-02-14T03:27:38;7.85;;;3.20;;
21562;SDS011;10942;47.894;11.424;2024-02-14T03:30:03;8.95;;;3.17;;
21562;SDS011;10942;47.894;11.424;2024-02-14T03:32:30;7.55;;;2.85;;
21562;SDS011;10942;47.894;11.424;2024-02-14T03:34:56;7.35;;;2.83;;
21562;SDS011;10942;47.894;11.424;2024-02-14T03:37:21;8.80;;;4.07;;
21562;SDS011;10942;47.894;11.424;2024-02-14T03:39:47;4.93;;;3.10;;
21562;SDS011;10942;47.894;11.424;2024-02-14T03:42:13;6.22;;;3.15;;
21562;SDS011;10942;47.894;11.424;2024-02-14T03:44:40;6.15;;;2.67;;
21562;SDS011;10942;47.894;11.424;2024-02-14T03:47:06;5.55;;;3.22;;
21562;SDS011;10942;47.894;11.424;2024-02-14T03:49:31;4.95;;;2.42;;
21562;SDS011;10942;47.894;11.424;2024-02-14T03:51:57;6.32;;;2.92;;
21562;SDS011;10942;47.894;11.424;2024-02-14T03:54:23;6.78;;;3.05;;
21562;SDS011;10942;47.894;11.424;2024-02-14T03:56:49;7.00;;;3.03;;
21562;SDS011;10942;47.894;11.424;2024-02-14T03:59:14;5.78;;;2.80;;
21562;SDS011;10942;47.894;11.424;2024-02-14T04:01:43;7.07;;;2.67;;
21562;SDS011;10942;47.894;11.424;2024-02-14T04:04:10;6.13;;;2.80;;
21562;SDS011;10942;47.894;11.424;2024-02-14T04:06:36;4.80;;;2.50;;
21562;SDS011;10942;47.894;11.424;2024-02-14T04:09:01;6.20;;;2.85;;
21562;SDS011;10942;47.894;11.424;2024-02-14T04:11:27;6.72;;;2.75;;
21562;SDS011;10942;47.894;11.424;2024-02-14T04:13:53;6.00;;;3.13;;
21562;SDS011;10942;47.894;11.424;2024-02-14T04:16:19;6.88;;;3.63;;
21562;SDS011;10942;47.894;11.424;2024-02-14T04:18:46;11.57;;;5.20;;
21562;SDS011;10942;47.894;11.424;2024-02-14T04:21:12;9.60;;;4.85;;
21562;SDS011;10942;47.894;11.424;2024-02-14T04:23:38;10.35;;;4.25;;
21562;SDS011;10942;47.894;11.424;2024-02-14T04:26:05;6.93;;;3.50;;
21562;SDS011;10942;47.894;11.424;2024-02-14T04:28:31;6.85;;;3.17;;
21562;SDS011;10942;47.894;11.424;2024-02-14T04:30:57;6.78;;;3.30;;
21562;SDS011;10942;47.894;11.424;2024-02-14T04:33:22;4.53;;;2.40;;
21562;SDS011;10942;47.894;11.424;2024-02-14T04:35:49;4.75;;;2.25;;
21562;SDS011;10942;47.894;11.424;2024-02-14T04:38:15;7.80;;;3.30;;
21562;SDS011;10942;47.894;11.424;2024-02-14T04:40:43;8.00;;;2.80;;
21562;SDS011;10942;47.894;11.424;2024-02-14T04:43:09;6.00;;;2.85;;
21562;SDS011;10942;47.894;11.424;2024-02-14T04:45:35;5.63;;;3.28;;
21562;SDS011;10942;47.894;11.424;2024-02-14T04:48:01;5.38;;;2.80;;
21562;SDS011;10942;47.894;11.424;2024-02-14T04:50:28;9.43;;;2.42;;
21562;SDS011;10942;47.894;11.424;2024-02-14T04:52:56;4.05;;;2.30;;
21562;SDS011;10942;47.894;11.424;2024-02-14T04:55:22;5.97;;;2.50;;
21562;SDS011;10942;47.894;11.424;2024-02-14T04:57:48;3.88;;;2.58;;
21562;SDS011;10942;47.894;11.424;2024-02-14T05:00:14;5.60;;;2.80;;
21562;SDS011;10942;47.894;11.424;2024-02-14T05:02:40;12.43;;;5.90;;
21562;SDS011;10942;47.894;11.424;2024-02-14T05:05:06;11.25;;;6.63;;
21562;SDS011;10942;47.894;11.424;2024-02-14T05:07:33;15.68;;;7.80;;
21562;SDS011;10942;47.894;11.424;2024-02-14T05:09:59;11.63;;;5.85;;
21562;SDS011;10942;47.894;11.424;2024-02-14T05:12:25;8.63;;;4.95;;
21562;SDS011;10942;47.894;11.424;2024-02-14T05:14:52;7.70;;;4.03;;
21562;SDS011;10942;47.894;11.424;2024-02-14T05:17:18;6.50;;;3.63;;
21562;SDS011;10942;47.894;11.424;2024-02-14T05:19:44;6.50;;;3.25;;
21562;SDS011;10942;47.894;11.424;2024-02-14T05:22:10;5.10;;;2.85;;
21562;SDS011;10942;47.894;11.424;2024-02-14T05:24:37;5.45;;;2.88;;
21562;SDS011;10942;47.894;11.424;2024-02-14T05:27:04;5.55;;;2.55;;
21562;SDS011;10942;47.894;11.424;2024-02-14T05:29:30;2.97;;;1.60;;
21562;SDS011;10942;47.894;11.424;2024-02-14T05:31:56;4.40;;;1.85;;
21562;SDS011;10942;47.894;11.424;2024-02-14T05:34:22;4.78;;;1.98;;
21562;SDS011;10942;47.894;11.424;2024-02-14T05:36:48;5.90;;;2.38;;
21562;SDS011;10942;47.894;11.424;2024-02-14T05:39:14;5.05;;;2.17;;
21562;SDS011;10942;47.894;11.424;2024-02-14T05:41:46;3.40;;;1.93;;
21562;SDS011;10942;47.894;11.424;2024-02-14T05:44:20;3.97;;;2.00;;
21562;SDS011;10942;47.894;11.424;2024-02-14T05:49:18;2.83;;;1.50;;
21562;SDS011;10942;47.894;11.424;2024-02-14T05:51:46;5.32;;;1.90;;
21562;SDS011;10942;47.894;11.424;2024-02-14T05:54:13;4.43;;;2.03;;
21562;SDS011;10942;47.894;11.424;2024-02-14T05:56:42;3.97;;;1.90;;
21562;SDS011;10942;47.894;11.424;2024-02-14T05:59:17;4.05;;;2.05;;
21562;SDS011;10942;47.894;11.424;2024-02-14T06:01:47;4.03;;;1.88;;
21562;SDS011;10942;47.894;11.424;2024-02-14T06:04:14;4.78;;;2.03;;
21562;SDS011;10942;47.894;11.424;2024-02-14T06:06:41;5.57;;;2.90;;
21562;SDS011;10942;47.894;11.424;2024-02-14T06:09:08;9.15;;;4.72;;
21562;SDS011;10942;47.894;11.424;2024-02-14T06:11:36;6.88;;;3.83;;
21562;SDS011;10942;47.894;11.424;2024-02-14T06:14:05;6.13;;;3.33;;
21562;SDS011;10942;47.894;11.424;2024-02-14T06:16:32;6.70;;;3.50;;
21562;SDS011;10942;47.894;11.424;2024-02-14T06:18:59;8.75;;;4.05;;
21562;SDS011;10942;47.894;11.424;2024-02-14T06:21:25;6.32;;;4.13;;
21562;SDS011;10942;47.894;11.424;2024-02-14T06:23:51;8.88;;;3.90;;
21562;SDS011;10942;47.894;11.424;2024-02-14T06:26:17;5.88;;;3.70;;
21562;SDS011;10942;47.894;11.424;2024-02-14T06:28:43;7.97;;;4.55;;
21562;SDS011;10942;47.894;11.424;2024-02-14T06:31:09;4.63;;;2.97;;
21562;SDS011;10942;47.894;11.424;2024-02-14T06:33:35;6.18;;;3.15;;
21562;SDS011;10942;47.894;11.424;2024-02-14T06:36:01;4.97;;;2.40;;
21562;SDS011;10942;47.894;11.424;2024-02-14T06:38:27;6.75;;;2.40;;
21562;SDS011;10942;47.894;11.424;2024-02-14T06:40:54;5.60;;;1.90;;
21562;SDS011;10942;47.894;11.424;2024-02-14T06:43:20;4.80;;;2.13;;
21562;SDS011;10942;47.894;11.424;2024-02-14T06:45:45;4.07;;;2.00;;
21562;SDS011;10942;47.894;11.424;2024-02-14T06:48:12;5.13;;;2.00;;
21562;SDS011;10942;47.894;11.424;2024-02-14T06:50:37;3.65;;;1.63;;
21562;SDS011;10942;47.894;11.424;2024-02-14T06:53:03;3.30;;;1.60;;
21562;SDS011;10942;47.894;11.424;2024-02-14T06:55:29;3.08;;;1.58;;
21562;SDS011;10942;47.894;11.424;2024-02-14T06:57:59;4.50;;;1.90;;
21562;SDS011;10942;47.894;11.424;2024-02-14T07:00:25;2.60;;;1.63;;
21562;SDS011;10942;47.894;11.424;2024-02-14T07:02:51;3.53;;;1.63;;
21562;SDS011;10942;47.894;11.424;2024-02-14T07:05:17;3.80;;;1.52;;
21562;SDS011;10942;47.894;11.424;2024-02-14T07:07:43;5.85;;;1.80;;
21562;SDS011;10942;47.894;11.424;2024-02-14T07:10:09;2.95;;;1.67;;
21562;SDS011;10942;47.894;11.424;2024-02-14T07:12:35;4.25;;;1.90;;
21562;SDS011;10942;47.894;11.424;2024-02-14T07:15:04;3.80;;;1.70;;
21562;SDS011;10942;47.894;11.424;2024-02-14T07:17:31;7.00;;;1.92;;
21562;SDS011;10942;47.894;11.424;2024-02-14T07:19:57;2.78;;;1.75;;
21562;SDS011;10942;47.894;11.424;2024-02-14T07:22:23;6.65;;;1.95;;
21562;SDS011;10942;47.894;11.424;2024-02-14T07:24:49;5.00;;;2.40;;
21562;SDS011;10942;47.894;11.424;2024-02-14T07:27:14;3.78;;;2.38;;
21562;SDS011;10942;47.894;11.424;2024-02-14T07:29:41;6.50;;;3.40;;
21562;SDS011;10942;47.894;11.424;2024-02-14T07:32:07;4.78;;;2.90;;
21562;SDS011;10942;47.894;11.424;2024-02-14T07:34:33;6.18;;;2.47;;
21562;SDS011;10942;47.894;11.424;2024-02-14T07:36:58;5.28;;;2.75;;
21562;SDS011;10942;47.894;11.424;2024-02-14T07:39:24;3.55;;;2.20;;
21562;SDS011;10942;47.894;11.424;2024-02-14T07:41:50;4.15;;;2.28;;
21562;SDS011;10942;47.894;11.424;2024-02-14T07:44:16;4.32;;;2.22;;
21562;SDS011;10942;47.894;11.424;2024-02-14T07:46:42;6.88;;;3.63;;
21562;SDS011;10942;47.894;11.424;2024-02-14T07:49:08;9.45;;;4.28;;
21562;SDS011;10942;47.894;11.424;2024-02-14T07:51:35;5.63;;;2.60;;
21562;SDS011;10942;47.894;11.424;2024-02-14T07:54:03;11.43;;;6.10;;
21562;SDS011;10942;47.894;11.424;2024-02-14T07:56:29;10.45;;;5.40;;
21562;SDS011;10942;47.894;11.424;2024-02-14T07:58:56;8.98;;;4.13;;
21562;SDS011;10942;47.894;11.424;2024-02-14T08:01:21;5.95;;;3.10;;
21562;SDS011;10942;47.894;11.424;2024-02-14T08:03:48;4.90;;;2.38;;
21562;SDS011;10942;47.894;11.424;2024-02-14T08:06:15;7.18;;;2.80;;
21562;SDS011;10942;47.894;11.424;2024-02-14T08:08:41;4.45;;;2.55;;
21562;SDS011;10942;47.894;11.424;2024-02-14T08:11:09;5.43;;;2.20;;
21562;SDS011;10942;47.894;11.424;2024-02-14T08:13:34;3.50;;;1.73;;
21562;SDS011;10942;47.894;11.424;2024-02-14T08:16:02;3.25;;;1.88;;
21562;SDS011;10942;47.894;11.424;2024-02-14T08:18:27;3.17;;;1.67;;
21562;SDS011;10942;47.894;11.424;2024-02-14T08:20:53;5.22;;;1.70;;
21562;SDS011;10942;47.894;11.424;2024-02-14T08:23:19;3.15;;;1.90;;
21562;SDS011;10942;47.894;11.424;2024-02-14T08:25:48;4.57;;;2.13;;
21562;SDS011;10942;47.894;11.424;2024-02-14T08:28:14;2.90;;;1.50;;
21562;SDS011;10942;47.894;11.424;2024-02-14T08:30:40;4.65;;;2.00;;
21562;SDS011;10942;47.894;11.424;2024-02-14T08:33:06;3.63;;;2.00;;
21562;SDS011;10942;47.894;11.424;2024-02-14T08:35:32;3.22;;;1.80;;
21562;SDS011;10942;47.894;11.424;2024-02-14T08:37:58;4.75;;;1.80;;
21562;SDS011;10942;47.894;11.424;2024-02-14T08:40:24;4.72;;;3.08;;
21562;SDS011;10942;47.894;11.424;2024-02-14T08:42:50;4.85;;;2.20;;
21562;SDS011;10942;47.894;11.424;2024-02-14T08:45:17;4.80;;;2.00;;
21562;SDS011;10942;47.894;11.424;2024-02-14T08:47:43;2.45;;;1.48;;
21562;SDS011;10942;47.894;11.424;2024-02-14T08:50:09;3.15;;;1.50;;
21562;SDS011;10942;47.894;11.424;2024-02-14T08:52:35;3.88;;;1.48;;
21562;SDS011;10942;47.894;11.424;2024-02-14T08:55:03;2.25;;;1.35;;
21562;SDS011;10942;47.894;11.424;2024-02-14T08:57:29;4.10;;;2.05;;
21562;SDS011;10942;47.894;11.424;2024-02-14T08:59:56;3.55;;;1.90;;
21562;SDS011;10942;47.894;11.424;2024-02-14T09:02:22;4.80;;;2.42;;
21562;SDS011;10942;47.894;11.424;2024-02-14T09:04:48;5.90;;;3.58;;
21562;SDS011;10942;47.894;11.424;2024-02-14T09:07:14;5.15;;;2.15;;
21562;SDS011;10942;47.894;11.424;2024-02-14T09:09:41;6.10;;;2.78;;
21562;SDS011;10942;47.894;11.424;2024-02-14T09:12:06;19.52;;;8.05;;
21562;SDS011;10942;47.894;11.424;2024-02-14T09:14:32;17.08;;;7.72;;
21562;SDS011;10942;47.894;11.424;2024-02-14T09:16:59;11.77;;;6.00;;
21562;SDS011;10942;47.894;11.424;2024-02-14T09:19:24;9.00;;;3.83;;
21562;SDS011;10942;47.894;11.424;2024-02-14T09:21:52;6.53;;;3.90;;
21562;SDS011;10942;47.894;11.424;2024-02-14T09:24:17;7.20;;;4.05;;
21562;SDS011;10942;47.894;11.424;2024-02-14T09:26:43;5.05;;;3.60;;
21562;SDS011;10942;47.894;11.424;2024-02-14T09:29:09;6.03;;;3.55;;
21562;SDS011;10942;47.894;11.424;2024-02-14T09:31:40;4.65;;;2.50;;
21562;SDS011;10942;47.894;11.424;2024-02-14T09:34:05;6.00;;;2.42;;
21562;SDS011;10942;47.894;11.424;2024-02-14T09:36:31;5.43;;;2.30;;
21562;SDS011;10942;47.894;11.424;2024-02-14T09:38:57;5.82;;;2.10;;
21562;SDS011;10942;47.894;11.424;2024-02-14T09:41:25;4.32;;;2.10;;
21562;SDS011;10942;47.894;11.424;2024-02-14T09:44:03;7.63;;;2.58;;
21562;SDS011;10942;47.894;11.424;2024-02-14T09:46:29;4.63;;;2.03;;
21562;SDS011;10942;47.894;11.424;2024-02-14T09:48:58;4.45;;;1.80;;
21562;SDS011;10942;47.894;11.424;2024-02-14T09:51:24;4.45;;;1.65;;
21562;SDS011;10942;47.894;11.424;2024-02-14T09:53:50;2.85;;;1.05;;
21562;SDS011;10942;47.894;11.424;2024-02-14T09:56:18;5.20;;;1.17;;
21562;SDS011;10942;47.894;11.424;2024-02-14T09:58:47;2.72;;;1.10;;
21562;SDS011;10942;47.894;11.424;2024-02-14T10:01:25;3.25;;;0.90;;
21562;SDS011;10942;47.894;11.424;2024-02-14T10:03:54;6.68;;;1.65;;
21562;SDS011;10942;47.894;11.424;2024-02-14T10:06:20;5.60;;;1.15;;
21562;SDS011;10942;47.894;11.424;2024-02-14T10:08:47;2.00;;;0.93;;
21562;SDS011;10942;47.894;11.424;2024-02-14T10:11:17;2.75;;;1.25;;
21562;SDS011;10942;47.894;11.424;2024-02-14T10:13:46;2.42;;;1.05;;
21562;SDS011;10942;47.894;11.424;2024-02-14T10:16:13;4.85;;;1.50;;
21562;SDS011;10942;47.894;11.424;2024-02-14T10:18:39;1.95;;;0.80;;
21562;SDS011;10942;47.894;11.424;2024-02-14T10:21:05;1.92;;;1.00;;
21562;SDS011;10942;47.894;11.424;2024-02-14T10:23:31;3.05;;;0.73;;
21562;SDS011;10942;47.894;11.424;2024-02-14T10:25:57;1.95;;;0.95;;
21562;SDS011;10942;47.894;11.424;2024-02-14T10:28:23;1.80;;;0.90;;
21562;SDS011;10942;47.894;11.424;2024-02-14T10:30:49;1.45;;;0.70;;
21562;SDS011;10942;47.894;11.424;2024-02-14T10:33:16;3.17;;;0.90;;
21562;SDS011;10942;47.894;11.424;2024-02-14T10:35:42;2.95;;;1.00;;
21562;SDS011;10942;47.894;11.424;2024-02-14T10:38:09;1.45;;;0.60;;
21562;SDS011;10942;47.894;11.424;2024-02-14T10:40:36;1.85;;;0.82;;
21562;SDS011;10942;47.894;11.424;2024-02-14T10:43:08;1.35;;;0.70;;
21562;SDS011;10942;47.894;11.424;2024-02-14T10:45:37;2.00;;;0.90;;
21562;SDS011;10942;47.894;11.424;2024-02-14T10:48:05;3.08;;;1.15;;
21562;SDS011;10942;47.894;11.424;2024-02-14T10:50:32;2.22;;;0.90;;
21562;SDS011;10942;47.894;11.424;2024-02-14T10:53:00;3.50;;;0.75;;
21562;SDS011;10942;47.894;11.424;2024-02-14T10:55:29;1.50;;;0.93;;
21562;SDS011;10942;47.894;11.424;2024-02-14T10:57:57;2.63;;;0.90;;
21562;SDS011;10942;47.894;11.424;2024-02-14T11:00:23;2.25;;;0.70;;
21562;SDS011;10942;47.894;11.424;2024-02-14T11:02:49;2.65;;;0.88;;
21562;SDS011;10942;47.894;11.424;2024-02-14T11:05:16;2.63;;;0.90;;
21562;SDS011;10942;47.894;11.424;2024-02-14T11:07:47;1.88;;;0.60;;
21562;SDS011;10942;47.894;11.424;2024-02-14T11:10:17;2.47;;;0.80;;
21562;SDS011;10942;47.894;11.424;2024-02-14T11:12:43;2.97;;;0.80;;
21562;SDS011;10942;47.894;11.424;2024-02-14T11:17:43;3.90;;;0.98;;
21562;SDS011;10942;47.894;11.424;2024-02-14T11:20:16;1.80;;;0.70;;
21562;SDS011;10942;47.894;11.424;2024-02-14T11:22:54;4.32;;;1.27;;
21562;SDS011;10942;47.894;11.424;2024-02-14T11:25:29;1.23;;;0.70;;
21562;SDS011;10942;47.894;11.424;2024-02-14T11:27:59;1.52;;;0.80;;
21562;SDS011;10942;47.894;11.424;2024-02-14T11:30:30;2.42;;;0.93;;
21562;SDS011;10942;47.894;11.424;2024-02-14T11:35:48;1.80;;;0.70;;
21562;SDS011;10942;47.894;11.424;2024-02-14T11:38:16;1.88;;;0.70;;
21562;SDS011;10942;47.894;11.424;2024-02-14T11:40:43;1.60;;;0.70;;
21562;SDS011;10942;47.894;11.424;2024-02-14T11:43:10;2.13;;;0.88;;
21562;SDS011;10942;47.894;11.424;2024-02-14T11:45:38;2.47;;;0.70;;
21562;SDS011;10942;47.894;11.424;2024-02-14T11:48:07;2.15;;;0.98;;
21562;SDS011;10942;47.894;11.424;2024-02-14T11:50:38;4.05;;;0.80;;
21562;SDS011;10942;47.894;11.424;2024-02-14T11:53:05;2.30;;;0.65;;
21562;SDS011;10942;47.894;11.424;2024-02-14T11:55:34;3.25;;;0.60;;
21562;SDS011;10942;47.894;11.424;2024-02-14T11:58:01;2.33;;;0.70;;
21562;SDS011;10942;47.894;11.424;2024-02-14T12:00:27;2.35;;;0.75;;
21562;SDS011;10942;47.894;11.424;2024-02-14T12:02:53;2.60;;;0.73;;
21562;SDS011;10942;47.894;11.424;2024-02-14T12:05:19;1.27;;;0.60;;
21562;SDS011;10942;47.894;11.424;2024-02-14T12:07:45;1.77;;;0.70;;
21562;SDS011;10942;47.894;11.424;2024-02-14T12:10:11;2.22;;;0.93;;
21562;SDS011;10942;47.894;11.424;2024-02-14T12:12:38;2.55;;;0.80;;
21562;SDS011;10942;47.894;11.424;2024-02-14T12:15:04;3.42;;;1.00;;
21562;SDS011;10942;47.894;11.424;2024-02-14T12:17:31;4.00;;;0.88;;
21562;SDS011;10942;47.894;11.424;2024-02-14T12:20:09;2.47;;;0.70;;
21562;SDS011;10942;47.894;11.424;2024-02-14T12:22:38;2.28;;;0.75;;
21562;SDS011;10942;47.894;11.424;2024-02-14T12:25:05;2.58;;;0.85;;
21562;SDS011;10942;47.894;11.424;2024-02-14T12:27:33;2.15;;;1.10;;
21562;SDS011;10942;47.894;11.424;2024-02-14T12:29:59;2.00;;;0.90;;
21562;SDS011;10942;47.894;11.424;2024-02-14T12:32:29;0.85;;;0.52;;
21562;SDS011;10942;47.894;11.424;2024-02-14T12:34:58;2.83;;;1.52;;
21562;SDS011;10942;47.894;11.424;2024-02-14T12:37:24;2.05;;;1.00;;
21562;SDS011;10942;47.894;11.424;2024-02-14T12:39:49;1.10;;;0.57;;
21562;SDS011;10942;47.894;11.424;2024-02-14T12:42:15;1.85;;;0.70;;
21562;SDS011;10942;47.894;11.424;2024-02-14T12:44:43;2.65;;;0.88;;
21562;SDS011;10942;47.894;11.424;2024-02-14T12:47:09;1.75;;;0.88;;
21562;SDS011;10942;47.894;11.424;2024-02-14T12:49:35;2.38;;;1.10;;
21562;SDS011;10942;47.894;11.424;2024-02-14T12:52:01;1.75;;;0.95;;
21562;SDS011;10942;47.894;11.424;2024-02-14T12:54:27;2.63;;;0.93;;
21562;SDS011;10942;47.894;11.424;2024-02-14T12:56:52;2.72;;;0.88;;
21562;SDS011;10942;47.894;11.424;2024-02-14T12:59:18;2.33;;;0.68;;
21562;SDS011;10942;47.894;11.424;2024-02-14T13:01:44;1.85;;;0.60;;
21562;SDS011;10942;47.894;11.424;2024-02-14T13:04:10;0.77;;;0.30;;
21562;SDS011;10942;47.894;11.424;2024-02-14T13:06:36;2.55;;;0.85;;
21562;SDS011;10942;47.894;11.424;2024-02-14T13:09:05;0.77;;;0.40;;
21562;SDS011;10942;47.894;11.424;2024-02-14T13:11:31;0.80;;;0.28;;
21562;SDS011;10942;47.894;11.424;2024-02-14T13:13:57;0.50;;;0.20;;
21562;SDS011;10942;47.894;11.424;2024-02-14T13:16:23;1.02;;;0.30;;
21562;SDS011;10942;47.894;11.424;2024-02-14T13:18:49;2.53;;;0.20;;
21562;SDS011;10942;47.894;11.424;2024-02-14T13:21:15;1.25;;;0.28;;
21562;SDS011;10942;47.894;11.424;2024-02-14T13:23:42;0.85;;;0.28;;
21562;SDS011;10942;47.894;11.424;2024-02-14T13:26:08;1.13;;;0.38;;
21562;SDS011;10942;47.894;11.424;2024-02-14T13:28:33;0.68;;;0.40;;
21562;SDS011;10942;47.894;11.424;2024-02-14T13:31:00;2.67;;;0.40;;
21562;SDS011;10942;47.894;11.424;2024-02-14T13:33:25;0.50;;;0.20;;
21562;SDS011;10942;47.894;11.424;2024-02-14T13:35:51;0.40;;;0.20;;
21562;SDS011;10942;47.894;11.424;2024-02-14T13:38:17;1.27;;;0.32;;
21562;SDS011;10942;47.894;11.424;2024-02-14T13:40:43;0.95;;;0.50;;
21562;SDS011;10942;47.894;11.424;2024-02-14T13:43:09;2.00;;;0.30;;
21562;SDS011;10942;47.894;11.424;2024-02-14T13:45:42;0.70;;;0.30;;
21562;SDS011;10942;47.894;11.424;2024-02-14T13:48:09;1.10;;;0.50;;
21562;SDS011;10942;47.894;11.424;2024-02-14T13:50:36;0.93;;;0.50;;
21562;SDS011;10942;47.894;11.424;2024-02-14T13:53:03;0.75;;;0.40;;
21562;SDS011;10942;47.894;11.424;2024-02-14T13:55:29;0.52;;;0.25;;
21562;SDS011;10942;47.894;11.424;2024-02-14T13:57:54;1.08;;;0.55;;
21562;SDS011;10942;47.894;11.424;2024-02-14T14:00:20;2.20;;;0.55;;
21562;SDS011;10942;47.894;11.424;2024-02-14T14:02:46;1.33;;;0.40;;
21562;SDS011;10942;47.894;11.424;2024-02-14T14:05:12;0.65;;;0.30;;
21562;SDS011;10942;47.894;11.424;2024-02-14T14:07:38;0.55;;;0.32;;
21562;SDS011;10942;47.894;11.424;2024-02-14T14:10:04;1.08;;;0.50;;
21562;SDS011;10942;47.894;11.424;2024-02-14T14:12:31;0.90;;;0.43;;
21562;SDS011;10942;47.894;11.424;2024-02-14T14:14:57;1.00;;;0.38;;
21562;SDS011;10942;47.894;11.424;2024-02-14T14:17:23;0.50;;;0.30;;
21562;SDS011;10942;47.894;11.424;2024-02-14T14:19:49;0.47;;;0.17;;
21562;SDS011;10942;47.894;11.424;2024-02-14T14:22:15;0.50;;;0.32;;
21562;SDS011;10942;47.894;11.424;2024-02-14T14:24:41;0.28;;;0.20;;
21562;SDS011;10942;47.894;11.424;2024-02-14T14:27:07;0.75;;;0.30;;
21562;SDS011;10942;47.894;11.424;2024-02-14T14:29:45;1.87;;;0.20;;
21562;SDS011;10942;47.894;11.424;2024-02-14T14:32:11;1.58;;;0.20;;
21562;SDS011;10942;47.894;11.424;2024-02-14T14:34:37;0.57;;;0.28;;
21562;SDS011;10942;47.894;11.424;2024-02-14T14:37:02;0.77;;;0.30;;